METAR de aeropuertos de Murcia y cercanos

 

LEMI - Murcia/Corvera
Actualización: 25/04/2019 12:00
Few Clouds
Few Clouds
 Viento del SSO
Viento: SSO 26 km/h
Temperatura: 19°C
Rocío: 13°C
Humedad: 68%
Barómetro: 1013 hPa
Nubosidad: Few Clouds
Visibilidad: 10 km
Cloud details: Few Clouds 1829 m
2019/04/25 10:00 LEMI 251000Z 21014KT 9999 FEW060 19/13 Q1013
LERI - Murcia/Alcantarilla
Actualización: 25/04/2019 12:00
Few Clouds
Few Clouds
 Viento del OSO
Viento: OSO 30 km/h
Temperatura: 20°C
Rocío: 10°C
Humedad: 53%
Barómetro: 1012 hPa
Nubosidad: Few Clouds
Visibilidad: 10 km
Cloud details: Few Clouds 1524 m
2019/04/25 10:00 LERI 251000Z 24016KT 200V280 9999 FEW050 20/10 Q1012 NOSIG
LELC - Murcia/San Javier
Actualización: 25/04/2019 12:00
Few Clouds
Few Clouds
 Viento del SO
Viento: SO 26 km/h
Temperatura: 20°C
Rocío: 13°C
Humedad: 64%
Barómetro: 1012 hPa
Nubosidad: Few Clouds
Visibilidad: 10 km
Cloud details: Few Clouds 914 m
2019/04/25 10:00 LELC 251000Z 22014KT 190V270 9999 FEW030 20/13 Q1012 NOSIG
 
LEAL - Alicante
Actualización: 25/04/2019 12:00
Despejado
Despejado
 Viento del SO
Viento: SO 9 km/h
Temperatura: 19°C
Rocío: 12°C
Humedad: 64%
Barómetro: 1012 hPa
Resumen: Despejado
Visibilidad: greater than 10 km
2019/04/25 10:00 LEAL 251000Z 23005KT 170V280 CAVOK 19/12 Q1012 NOSIG
LEAB - Albacete
Actualización: 25/04/2019 12:00
Drizzle, Cubierto
Drizzle, Cubierto
 Viento del ONO
Viento: ONO 30 km/h
Temperatura: 9°C
Wind Chill: 5°C
Rocío: 7°C
Humedad: 87%
Barómetro: 1015 hPa
Resumen: Drizzle
Nubosidad: Cubierto
Visibilidad: 4 km
Cloud details: Partly Cloudy 152 m
Mostly Cloudy 610 m
Cubierto 1219 m
2019/04/25 10:00 LEAB 251000Z 29016KT 4000 DZ SCT005 BKN020 OVC040 09/07 Q1015 NOSIG
LEAM - Almería
Actualización: 25/04/2019 12:00
Cubierto
Cubierto
 Viento del SO
Viento: SO 28 km/h
Temperatura: 16°C
Rocío: 14°C
Humedad: 88%
Barómetro: 1015 hPa
Nubosidad: Cubierto
Visibilidad: 10 km
Cloud details: Partly Cloudy 732 m
Mostly Cloudy 914 m
Cubierto 1097 m
2019/04/25 10:00 LEAM 251000Z 22015KT 9999 SCT024 BKN030 OVC036 16/14 Q1015

La estación de MeteoMurcia.com, publica sus datos en los siguientes proyectos:

Meteoclimatic www.awekas.at

W3Counter
Web Analytics